Hovedside
METAR-TAF:

METAR-TAF

Lufthavner :

Aalborg lufthavn

Aalborg, Danmark

breddegrad: 57-06N, lengdegrad: 009-51E, høyde over havet: 3 m

Gjeldene værobservasjon

Denne rapporten ble laget for 5 minutter siden, klokken 19:50 UTC
Vind 14 kt fra Sør
Temperatur 20°C
Luftfuktighet 78%
Trykk 1010 hPa
Sikt 10 km eller mer

METAR: EKYT 161950Z AUTO 19014KT 9999NDV FEW031/// BKN050/// 20/16 Q1010

Tid: 21:55 (19:55 UTC)

Varsel

Denne rapporten ble laget for 2 timer og 34 minutter siden, klokken 17:21 UTC
Varsel gyldig fra 16. klokken 18 UTC til 17. klokken 18 UTC
Vind 12 kt fra Sør
Sikt 10 km eller mer
Brutte skyer i en høyde av 3000 ft
Midlertidig
fra 16. klokken 18 UTC til 17. klokken 06 UTC
Sikt: 4000 m
Brutte skyer i en høyde av 800 ft
lett regn
Blir
fra 17. klokken 06 UTC til 17. klokken 09 UTC
Vind 10 kt fra Vest-sørvest

TAF: EKYT 161721Z 1618/1718 19012KT 9999 BKN030 TEMPO 1618/1706 4000 -RA BKN008 BECMG 1706/1709 25010KT

Værobservasjoner og værvarsel for over 4000 flyplasser (METAR- og TAF-rapporter).

Tilgjengelige stasjoner er representert av de røde og gule prikkene på kartet.

Hold musepekeren over prikken for å se navnet på stasjonen.

Klikk så for å se værobservasjoner og -varsler.

For å forandre kartet kan du klikke på den grønne knappen med svart kryss for å zoome inn, på den grønne knappen med strek for å zoome ut, eller på de grønne pilene for å se tilstøtende kart.


METAR-TAF: